createdAt,value
2023-05-19T00:06:04.877Z,80.57
2023-05-19T00:16:27.472Z,81.45
2023-05-19T00:26:48.980Z,79.48
2023-05-19T00:37:10.385Z,80.94
2023-05-19T00:47:31.892Z,79.73
2023-05-19T00:57:54.066Z,80.94
2023-05-19T01:08:16.211Z,80.28
2023-05-19T01:18:40.751Z,80.12
2023-05-19T01:29:14.938Z,81.22
2023-05-19T01:39:37.130Z,82.24
2023-05-19T01:49:58.563Z,82.34
2023-05-19T02:00:28.436Z,83.47
2023-05-19T02:10:51.863Z,81.38
2023-05-19T02:21:13.546Z,80.96
2023-05-19T02:31:35.042Z,81.18
2023-05-19T02:41:56.466Z,81.48
2023-05-19T02:52:17.892Z,80.43
2023-05-19T03:02:39.765Z,80.55
2023-05-19T03:13:01.306Z,82.72
2023-05-19T03:23:22.731Z,79.87
2023-05-19T03:33:44.245Z,79.48
2023-05-19T03:44:05.860Z,79.46
2023-05-19T03:54:27.435Z,79.28
2023-05-19T04:04:48.996Z,78.68
2023-05-19T04:15:13.438Z,78.17
2023-05-19T04:25:36.252Z,79.51
2023-05-19T04:35:58.384Z,79.27
2023-05-19T04:46:24.367Z,77.45
2023-05-19T04:56:46.190Z,78.03
2023-05-19T05:07:07.620Z,77.14
2023-05-19T05:17:29.255Z,76.24
2023-05-19T05:27:50.723Z,75.88
2023-05-19T05:38:12.166Z,75.08
2023-05-19T05:48:33.903Z,75.71
2023-05-19T05:58:55.332Z,73.90
2023-05-19T06:09:17.028Z,73.80
2023-05-19T06:19:38.467Z,73.54
2023-05-19T06:29:59.862Z,73.14
2023-05-19T06:40:21.386Z,71.29
2023-05-19T06:50:42.800Z,72.06
2023-05-19T07:01:04.191Z,73.08
2023-05-19T07:11:26.316Z,72.06
2023-05-19T07:21:47.830Z,72.58
2023-05-19T07:32:09.354Z,72.58
2023-05-19T07:42:30.936Z,70.85
2023-05-19T07:52:52.331Z,70.41
2023-05-19T08:03:17.761Z,69.95
2023-05-19T08:13:39.572Z,69.09
2023-05-19T08:24:01.746Z,68.61
2023-05-19T08:34:23.177Z,68.75
2023-05-19T08:44:44.631Z,68.38
2023-05-19T08:55:09.845Z,68.18
2023-05-19T09:05:32.179Z,68.23
2023-05-19T09:15:56.222Z,66.08
2023-05-19T09:26:18.118Z,66.59
2023-05-19T09:36:40.305Z,64.80
2023-05-19T09:47:03.595Z,64.11
2023-05-19T09:57:25.940Z,63.55
2023-05-19T10:07:50.091Z,62.96
2023-05-19T10:18:12.117Z,61.90
2023-05-19T10:28:41.031Z,61.71
2023-05-19T10:39:16.630Z,62.31
2023-05-19T10:49:38.099Z,60.53
2023-05-19T11:00:11.035Z,57.04
2023-05-19T11:10:32.493Z,56.69
2023-05-19T11:21:00.761Z,55.87
2023-05-19T11:31:23.021Z,58.23
2023-05-19T11:41:44.568Z,55.22
2023-05-19T11:52:06.214Z,57.68
2023-05-19T12:02:28.277Z,54.97
2023-05-19T12:12:53.376Z,53.09
2023-05-19T12:23:15.029Z,56.40
2023-05-19T12:33:36.491Z,51.89
2023-05-19T12:43:58.025Z,55.69
2023-05-19T12:54:20.586Z,52.10
2023-05-19T13:04:42.476Z,53.84
2023-05-19T13:15:04.177Z,51.23
2023-05-19T13:25:26.403Z,51.66
2023-05-19T13:35:47.816Z,53.74
2023-05-19T13:46:09.350Z,49.82
2023-05-19T13:56:31.652Z,52.76
2023-05-19T14:06:53.107Z,51.96
2023-05-19T14:17:14.597Z,53.47
2023-05-19T14:27:36.054Z,52.47
2023-05-19T14:37:57.458Z,53.72
2023-05-19T14:48:18.997Z,53.31
2023-05-19T14:58:40.498Z,53.52
2023-05-19T15:09:02.139Z,51.73
2023-05-19T15:19:23.645Z,53.40
2023-05-19T15:29:45.195Z,51.34
2023-05-19T15:40:07.075Z,54.47
2023-05-19T15:50:28.985Z,54.60
2023-05-19T16:00:50.579Z,52.69
2023-05-19T16:11:12.222Z,52.63
2023-05-19T16:21:33.617Z,47.75
2023-05-19T16:31:55.105Z,51.06
2023-05-19T16:42:16.554Z,53.79
2023-05-19T16:52:37.949Z,53.63
2023-05-19T17:02:59.474Z,53.82
2023-05-19T17:13:20.970Z,55.89
2023-05-19T17:23:42.363Z,55.66
2023-05-19T17:34:03.852Z,53.12
2023-05-19T17:44:25.416Z,53.66
2023-05-19T17:54:47.063Z,55.60
2023-05-19T18:05:08.920Z,53.25
2023-05-19T18:15:30.612Z,54.63
2023-05-19T18:25:53.272Z,56.26
2023-05-19T18:36:16.430Z,54.29
2023-05-19T18:46:38.004Z,56.19
2023-05-19T18:56:59.619Z,56.28
2023-05-19T19:07:21.028Z,57.74
2023-05-19T19:17:42.577Z,58.80
2023-05-19T19:28:04.058Z,61.04
2023-05-19T19:38:25.510Z,61.28
2023-05-19T19:48:46.937Z,61.37
2023-05-19T19:59:08.377Z,61.85
2023-05-19T20:09:29.768Z,62.78
2023-05-19T20:19:51.276Z,62.89
2023-05-19T20:30:12.701Z,63.16
2023-05-19T20:40:34.176Z,62.67
2023-05-19T20:50:55.673Z,62.57
2023-05-19T21:01:17.294Z,62.40
2023-05-19T21:11:38.845Z,61.57
2023-05-19T21:22:00.272Z,61.48
2023-05-19T21:32:21.773Z,62.78
2023-05-19T21:42:43.220Z,63.21
2023-05-19T21:53:04.844Z,62.62
2023-05-19T22:03:26.844Z,63.60
2023-05-19T22:13:48.447Z,63.98
2023-05-19T22:24:09.967Z,63.07
2023-05-19T22:34:31.517Z,64.44
2023-05-19T22:44:52.925Z,64.41
2023-05-19T22:55:14.364Z,65.41
2023-05-19T23:05:35.919Z,65.62
2023-05-19T23:15:57.619Z,66.37
2023-05-19T23:26:19.065Z,66.08
2023-05-19T23:36:40.829Z,66.39
2023-05-19T23:47:02.315Z,66.24
2023-05-19T23:57:23.895Z,67.56
